Time;durP1;ratioP1;P1;durP2;ratioP2;P2;SDS_P1;SDS_P2;PMS_P1;PMS_P2;Temp;Humidity;BMP_temperature;BMP_pressure;BME280_temperature;BME280_humidity;BME280_pressure;Samples;Min_cycle;Max_cycle;Signal;HPM_P1;HPM_P2
2021/07/22 00:00:22;;;;;;;19.67;17.63;;;24.10;99.90;;;;;;5080458;28;20252;-74
2021/07/22 00:02:49;;;;;;;18.45;16.60;;;24.10;99.90;;;;;;5084516;28;20615;-75
2021/07/22 00:05:16;;;;;;;18.00;16.17;;;24.10;99.90;;;;;;5092933;28;20258;-74
2021/07/22 00:07:46;;;;;;;20.05;17.27;;;24.00;99.90;;;;;;5085007;28;20292;-74
2021/07/22 00:10:14;;;;;;;18.38;16.27;;;24.00;99.90;;;;;;5092213;28;20206;-75
2021/07/22 00:12:41;;;;;;;18.77;16.80;;;23.90;99.90;;;;;;5079466;28;20210;-73
2021/07/22 00:15:09;;;;;;;18.50;16.63;;;23.90;99.90;;;;;;5090706;28;20272;-73
2021/07/22 00:17:36;;;;;;;17.60;15.80;;;23.90;99.90;;;;;;5093088;28;20227;-72
2021/07/22 00:20:05;;;;;;;19.00;17.10;;;23.90;99.90;;;;;;5092835;28;20225;-73
2021/07/22 00:22:32;;;;;;;17.27;15.50;;;23.80;99.90;;;;;;5092568;28;20208;-73
2021/07/22 00:25:00;;;;;;;19.38;17.42;;;23.80;99.90;;;;;;5088676;28;20222;-73
2021/07/22 00:27:27;;;;;;;18.70;16.92;;;23.90;99.90;;;;;;5084624;28;20251;-73
2021/07/22 00:29:54;;;;;;;18.83;16.25;;;23.80;99.90;;;;;;5087714;28;20209;-73
2021/07/22 00:32:21;;;;;;;21.27;17.30;;;23.80;99.90;;;;;;5086601;28;20251;-72
2021/07/22 00:34:48;;;;;;;19.67;17.58;;;23.70;99.90;;;;;;5092889;28;20209;-74
2021/07/22 00:37:15;;;;;;;21.13;17.90;;;23.70;99.90;;;;;;5084723;28;20206;-72
2021/07/22 00:39:42;;;;;;;18.08;16.33;;;23.60;99.90;;;;;;5083709;28;20225;-74
2021/07/22 00:42:11;;;;;;;21.33;17.95;;;23.50;99.90;;;;;;5085790;28;20729;-73
2021/07/22 00:44:38;;;;;;;20.33;18.23;;;23.50;99.90;;;;;;5087466;28;20628;-73
2021/07/22 00:47:05;;;;;;;23.02;18.15;;;23.50;99.90;;;;;;5088930;28;20201;-73
2021/07/22 00:49:32;;;;;;;18.98;16.35;;;23.50;99.90;;;;;;5092048;28;20205;-73
2021/07/22 00:51:59;;;;;;;16.42;14.77;;;23.40;99.90;;;;;;5090785;28;20259;-73
2021/07/22 00:54:26;;;;;;;20.55;16.77;;;23.40;99.90;;;;;;5090568;28;20209;-74
2021/07/22 00:56:53;;;;;;;22.23;16.52;;;23.40;99.90;;;;;;5092174;28;20210;-74
2021/07/22 00:59:21;;;;;;;17.73;15.82;;;23.40;99.90;;;;;;5084435;28;20230;-74
2021/07/22 01:01:48;;;;;;;20.45;15.88;;;23.40;99.90;;;;;;5092087;28;20264;-74
2021/07/22 01:04:18;;;;;;;17.23;15.48;;;23.40;99.90;;;;;;5087661;28;20619;-74
2021/07/22 01:06:45;;;;;;;18.42;15.82;;;23.50;99.90;;;;;;5079110;28;20209;-74
2021/07/22 01:09:12;;;;;;;18.10;15.20;;;23.40;99.90;;;;;;5087510;28;20274;-74
2021/07/22 01:11:39;;;;;;;16.80;15.23;;;23.40;99.90;;;;;;5087949;28;20206;-74
2021/07/22 01:14:06;;;;;;;17.83;15.95;;;23.30;99.90;;;;;;5086621;28;20258;-74
2021/07/22 01:16:34;;;;;;;16.25;14.57;;;23.40;99.90;;;;;;5086898;28;20231;-74
2021/07/22 01:19:01;;;;;;;15.50;13.88;;;23.40;99.90;;;;;;5091089;28;20780;-74
2021/07/22 01:21:30;;;;;;;16.92;15.32;;;23.40;99.90;;;;;;5084908;28;20585;-74
2021/07/22 01:23:57;;;;;;;18.55;15.30;;;23.40;99.90;;;;;;5085908;28;20206;-73
2021/07/22 01:26:24;;;;;;;16.92;14.93;;;23.30;99.90;;;;;;5088855;28;20205;-74
2021/07/22 01:28:51;;;;;;;17.52;15.40;;;23.20;99.90;;;;;;5080347;28;20330;-74
2021/07/22 01:31:24;;;;;;;16.15;14.65;;;23.20;99.90;;;;;;5075591;28;20279;-74
2021/07/22 01:33:51;;;;;;;17.30;15.48;;;23.20;99.90;;;;;;5090560;28;20193;-74
2021/07/22 01:36:22;;;;;;;16.05;14.57;;;23.20;99.90;;;;;;5091008;28;20255;-74
2021/07/22 01:38:51;;;;;;;16.42;14.77;;;23.20;99.90;;;;;;5091208;28;20632;-75
2021/07/22 01:41:18;;;;;;;14.85;13.48;;;23.10;99.90;;;;;;5090750;28;20649;-74
2021/07/22 01:43:45;;;;;;;17.60;15.68;;;23.10;99.90;;;;;;5077719;28;20213;-74
2021/07/22 01:46:12;;;;;;;15.90;14.02;;;23.00;99.90;;;;;;5085869;28;20669;-74
2021/07/22 01:48:39;;;;;;;16.63;14.30;;;23.00;99.90;;;;;;5090857;28;20646;-74
2021/07/22 01:51:06;;;;;;;17.27;15.55;;;23.00;99.90;;;;;;5091462;28;20202;-74
2021/07/22 01:53:33;;;;;;;18.85;16.77;;;23.10;99.90;;;;;;5091147;28;20213;-74
2021/07/22 01:56:04;;;;;;;16.30;14.57;;;23.10;99.90;;;;;;5076234;28;20201;-74
2021/07/22 01:58:31;;;;;;;17.63;15.77;;;23.00;99.90;;;;;;5086992;28;20233;-74
2021/07/22 02:00:58;;;;;;;17.17;15.57;;;23.00;99.90;;;;;;5090846;28;20237;-75
2021/07/22 02:03:25;;;;;;;15.52;13.93;;;23.00;99.90;;;;;;5090531;28;20262;-75
2021/07/22 02:05:52;;;;;;;15.73;14.32;;;22.90;99.90;;;;;;5089493;28;20258;-75
2021/07/22 02:08:19;;;;;;;15.63;14.13;;;22.90;99.90;;;;;;5090494;28;20239;-75
2021/07/22 02:10:46;;;;;;;16.73;14.20;;;22.90;99.90;;;;;;5090399;28;20206;-75
2021/07/22 02:13:14;;;;;;;17.48;15.65;;;22.90;99.90;;;;;;5084118;28;20206;-73
2021/07/22 02:15:41;;;;;;;17.55;15.15;;;22.90;99.90;;;;;;5079704;28;20673;-73
2021/07/22 02:18:08;;;;;;;18.77;16.80;;;23.00;99.90;;;;;;5090734;28;20263;-73
2021/07/22 02:20:36;;;;;;;16.70;14.80;;;23.00;99.90;;;;;;5086394;28;20232;-73
2021/07/22 02:23:03;;;;;;;17.33;15.45;;;22.90;99.90;;;;;;5074036;28;20670;-72
2021/07/22 02:25:30;;;;;;;17.13;15.32;;;23.00;99.90;;;;;;5069122;28;20283;-74
2021/07/22 02:27:57;;;;;;;21.83;16.38;;;22.90;99.90;;;;;;5070034;28;20677;-72
2021/07/22 02:30:25;;;;;;;16.05;14.45;;;22.90;99.90;;;;;;5069441;28;20206;-72
2021/07/22 02:32:52;;;;;;;17.75;14.40;;;22.90;99.90;;;;;;5069760;28;20627;-73
2021/07/22 02:35:19;;;;;;;18.20;15.00;;;22.80;99.90;;;;;;5070331;28;20209;-74
2021/07/22 02:37:46;;;;;;;15.75;13.55;;;22.80;99.90;;;;;;5070336;28;20210;-73
2021/07/22 02:40:14;;;;;;;18.10;16.17;;;22.80;99.90;;;;;;5069593;28;20222;-73
2021/07/22 02:42:41;;;;;;;16.30;14.70;;;22.70;99.90;;;;;;5070152;28;20743;-74
2021/07/22 02:45:10;;;;;;;17.05;15.20;;;22.70;99.90;;;;;;5069892;28;20275;-74
2021/07/22 02:47:38;;;;;;;17.75;16.05;;;22.70;99.90;;;;;;5070333;28;20256;-73
2021/07/22 02:50:06;;;;;;;18.33;14.95;;;22.70;99.90;;;;;;5070273;28;20228;-72
2021/07/22 02:52:34;;;;;;;18.67;16.67;;;22.70;99.90;;;;;;5070256;28;20232;-72
2021/07/22 02:55:01;;;;;;;17.63;15.77;;;22.60;99.90;;;;;;5069427;28;20259;-72
2021/07/22 02:57:29;;;;;;;22.17;16.38;;;22.60;99.90;;;;;;5069162;28;20259;-72
2021/07/22 02:59:58;;;;;;;17.30;15.75;;;22.70;99.90;;;;;;5069619;28;20291;-73
2021/07/22 03:02:25;;;;;;;16.20;14.68;;;22.60;99.90;;;;;;5070096;28;20289;-73
2021/07/22 03:04:53;;;;;;;17.38;14.95;;;22.60;99.90;;;;;;5070192;28;20210;-72
2021/07/22 03:07:20;;;;;;;16.30;14.63;;;22.60;99.90;;;;;;5056012;28;20267;-72
2021/07/22 03:09:47;;;;;;;17.60;15.80;;;22.60;99.90;;;;;;5069952;28;20646;-73
2021/07/22 03:12:15;;;;;;;16.48;14.85;;;22.50;99.90;;;;;;5068879;28;20661;-72
2021/07/22 03:14:42;;;;;;;17.48;15.55;;;22.50;99.90;;;;;;5069685;28;20252;-72
2021/07/22 03:17:09;;;;;;;16.00;14.18;;;22.40;99.90;;;;;;5069776;28;20627;-72
2021/07/22 03:19:36;;;;;;;15.63;14.02;;;22.40;99.90;;;;;;5070169;28;20222;-74
2021/07/22 03:22:04;;;;;;;22.02;15.88;;;22.40;99.90;;;;;;5070093;28;20279;-75
2021/07/22 03:24:32;;;;;;;22.48;13.98;;;22.40;99.90;;;;;;5069250;28;20255;-73
2021/07/22 03:26:59;;;;;;;17.02;15.23;;;22.30;99.90;;;;;;5069366;28;20206;-73
2021/07/22 03:29:26;;;;;;;19.63;15.70;;;22.30;99.90;;;;;;5069519;28;20253;-73
2021/07/22 03:31:53;;;;;;;17.92;16.13;;;22.30;99.90;;;;;;5069286;28;20202;-74
2021/07/22 03:34:20;;;;;;;16.80;15.13;;;22.30;99.90;;;;;;5069457;28;20323;-74
2021/07/22 03:36:47;;;;;;;18.40;16.17;;;22.30;99.90;;;;;;5070040;28;20202;-74
2021/07/22 03:39:16;;;;;;;18.33;15.63;;;22.30;99.90;;;;;;5068673;28;20279;-75
2021/07/22 03:41:48;;;;;;;17.73;15.95;;;22.30;99.90;;;;;;5069836;28;20264;-74
2021/07/22 03:44:15;;;;;;;17.48;15.73;;;22.30;99.90;;;;;;5070574;28;20221;-73
2021/07/22 03:46:43;;;;;;;18.02;14.63;;;22.30;99.90;;;;;;5073310;28;20213;-73
2021/07/22 03:49:10;;;;;;;17.45;15.40;;;22.30;99.90;;;;;;5073253;28;20259;-73
2021/07/22 03:51:37;;;;;;;18.73;16.80;;;22.30;99.90;;;;;;5073364;28;20206;-74
2021/07/22 03:54:05;;;;;;;22.27;17.25;;;22.20;99.90;;;;;;5073759;28;20210;-73
2021/07/22 03:56:35;;;;;;;19.00;17.20;;;22.20;99.90;;;;;;5072241;28;20217;-73
2021/07/22 03:59:02;;;;;;;18.33;16.42;;;22.20;99.90;;;;;;5073110;28;20248;-73
2021/07/22 04:01:29;;;;;;;17.35;15.55;;;22.20;99.90;;;;;;5072540;28;20234;-73
2021/07/22 04:03:56;;;;;;;17.98;15.68;;;22.20;99.90;;;;;;5072469;28;20256;-73
2021/07/22 04:06:22;;;;;;;17.05;15.30;;;22.30;99.90;;;;;;5072112;28;20210;-73
2021/07/22 04:08:49;;;;;;;18.80;15.20;;;22.20;99.90;;;;;;5073086;28;20210;-72
2021/07/22 04:11:16;;;;;;;18.35;16.48;;;22.20;99.90;;;;;;5072438;28;20255;-73
2021/07/22 04:13:45;;;;;;;18.95;15.20;;;22.30;99.90;;;;;;5072269;28;20206;-72
2021/07/22 04:16:12;;;;;;;18.73;16.70;;;22.20;99.90;;;;;;5072361;28;20202;-73
2021/07/22 04:18:38;;;;;;;18.48;16.58;;;22.20;99.90;;;;;;5072568;28;20263;-72
2021/07/22 04:21:05;;;;;;;20.00;16.85;;;22.20;99.90;;;;;;5072964;28;20291;-73
2021/07/22 04:23:32;;;;;;;19.75;16.92;;;22.20;99.90;;;;;;5072132;28;20214;-72
2021/07/22 04:25:59;;;;;;;18.05;16.08;;;22.00;99.90;;;;;;5071580;28;20276;-72
2021/07/22 04:28:26;;;;;;;18.63;16.77;;;22.10;99.90;;;;;;5060400;28;20268;-72
2021/07/22 04:30:55;;;;;;;17.58;15.75;;;22.00;99.90;;;;;;5068318;28;20637;-72
2021/07/22 04:33:22;;;;;;;19.92;15.82;;;22.00;99.90;;;;;;5072165;28;20202;-72
2021/07/22 04:35:48;;;;;;;18.08;16.23;;;22.00;99.90;;;;;;5072017;28;20210;-72
2021/07/22 04:38:15;;;;;;;18.88;16.70;;;21.90;99.90;;;;;;5072072;28;20202;-72
2021/07/22 04:40:42;;;;;;;18.15;16.27;;;21.90;99.90;;;;;;5072505;28;20229;-74
2021/07/22 04:43:09;;;;;;;17.83;16.10;;;21.90;99.90;;;;;;5071961;28;20198;-73
2021/07/22 04:45:36;;;;;;;18.15;15.95;;;21.90;99.90;;;;;;5072184;28;20206;-74
2021/07/22 04:48:06;;;;;;;19.17;15.48;;;21.90;99.90;;;;;;5071802;28;20221;-74
2021/07/22 04:50:33;;;;;;;20.08;18.17;;;22.00;99.90;;;;;;5071603;28;20206;-74
2021/07/22 04:53:00;;;;;;;20.05;16.52;;;22.00;99.90;;;;;;5071842;28;20646;-74
2021/07/22 04:55:27;;;;;;;18.17;16.48;;;21.90;99.90;;;;;;5071517;28;20202;-74
2021/07/22 04:58:01;;;;;;;19.80;17.10;;;21.90;99.90;;;;;;5071563;28;20632;-74
2021/07/22 05:00:28;;;;;;;20.88;15.65;;;22.00;99.90;;;;;;5060231;28;20225;-76
2021/07/22 05:02:58;;;;;;;17.98;16.20;;;22.00;99.90;;;;;;5071488;28;20252;-76
2021/07/22 05:05:27;;;;;;;18.48;16.60;;;22.10;99.90;;;;;;5071159;28;20285;-75
2021/07/22 05:07:54;;;;;;;19.15;17.25;;;22.10;99.90;;;;;;5071658;28;20264;-75
2021/07/22 05:10:21;;;;;;;19.35;17.35;;;22.20;99.90;;;;;;5066068;28;20202;-73
2021/07/22 05:12:48;;;;;;;18.13;16.45;;;22.20;99.90;;;;;;5071484;28;20210;-75
2021/07/22 05:15:15;;;;;;;16.95;15.30;;;22.30;99.90;;;;;;5070887;28;20203;-75
2021/07/22 05:17:42;;;;;;;18.50;16.67;;;22.20;99.90;;;;;;5071442;28;20214;-73
2021/07/22 05:20:09;;;;;;;19.15;17.42;;;22.30;99.90;;;;;;5071313;28;20222;-74
2021/07/22 05:22:38;;;;;;;18.00;16.25;;;22.30;99.90;;;;;;5071993;28;20256;-74
2021/07/22 05:25:06;;;;;;;20.10;15.30;;;22.40;99.90;;;;;;5070999;28;20335;-74
2021/07/22 05:27:33;;;;;;;18.23;16.38;;;22.40;99.90;;;;;;5071146;28;20285;-75
2021/07/22 05:29:59;;;;;;;25.15;16.58;;;22.50;99.90;;;;;;5071024;28;20279;-73
2021/07/22 05:32:26;;;;;;;16.92;15.25;;;22.60;99.90;;;;;;5070473;28;20214;-75
2021/07/22 05:34:53;;;;;;;17.10;15.13;;;22.60;99.90;;;;;;5071241;28;20214;-73
2021/07/22 05:37:20;;;;;;;15.55;13.90;;;22.70;99.90;;;;;;5070903;28;20275;-72
2021/07/22 05:39:49;;;;;;;15.63;14.02;;;22.70;99.90;;;;;;5070496;28;20251;-72
2021/07/22 05:42:16;;;;;;;15.48;13.63;;;22.80;99.90;;;;;;5070230;28;20628;-73
2021/07/22 05:44:44;;;;;;;18.60;14.90;;;22.80;99.90;;;;;;5070479;28;20206;-74
2021/07/22 05:47:11;;;;;;;19.00;14.50;;;22.90;99.90;;;;;;5070641;28;20237;-73
2021/07/22 05:49:38;;;;;;;14.40;13.00;;;23.00;99.90;;;;;;5055652;28;20242;-74
2021/07/22 05:52:07;;;;;;;16.90;15.15;;;23.00;99.90;;;;;;5071290;28;20642;-75
2021/07/22 05:54:34;;;;;;;15.38;13.88;;;23.00;99.90;;;;;;5070385;28;20644;-74
2021/07/22 05:57:03;;;;;;;19.30;14.93;;;23.00;99.90;;;;;;5071082;28;20213;-74
2021/07/22 05:59:30;;;;;;;18.92;14.55;;;23.00;99.90;;;;;;5070560;28;20214;-73
2021/07/22 06:01:57;;;;;;;15.95;13.93;;;22.90;99.90;;;;;;5069843;28;20230;-74
2021/07/22 06:04:24;;;;;;;17.77;15.93;;;23.00;99.90;;;;;;5063478;28;20202;-73
2021/07/22 06:06:52;;;;;;;16.50;14.80;;;23.10;99.90;;;;;;5069767;28;20206;-74
2021/07/22 06:09:19;;;;;;;15.75;14.15;;;23.20;99.90;;;;;;5067413;28;20215;-74
2021/07/22 06:11:47;;;;;;;16.50;14.48;;;23.30;99.90;;;;;;5068337;28;20210;-73
2021/07/22 06:14:15;;;;;;;14.70;13.32;;;23.40;99.90;;;;;;5067544;28;20244;-71
2021/07/22 06:16:42;;;;;;;16.10;14.50;;;23.50;99.90;;;;;;5068916;28;20260;-71
2021/07/22 06:19:09;;;;;;;18.80;14.10;;;23.50;99.90;;;;;;5070527;28;20263;-70
2021/07/22 06:21:36;;;;;;;18.50;15.10;;;23.60;99.90;;;;;;5070330;28;20240;-71
2021/07/22 06:24:03;;;;;;;21.73;15.18;;;23.50;99.90;;;;;;5066879;28;20207;-72
2021/07/22 06:26:34;;;;;;;18.33;14.23;;;23.50;99.90;;;;;;5069846;28;20747;-71
2021/07/22 06:29:01;;;;;;;16.98;14.35;;;23.60;99.90;;;;;;5069411;28;20681;-70
2021/07/22 06:31:29;;;;;;;14.35;12.77;;;23.60;99.90;;;;;;5068548;28;21141;-69
2021/07/22 06:33:57;;;;;;;20.42;13.00;;;23.70;99.90;;;;;;5063853;28;20730;-69
2021/07/22 06:36:24;;;;;;;15.30;13.50;;;23.70;99.90;;;;;;5066578;28;20289;-71
2021/07/22 06:38:51;;;;;;;14.55;13.15;;;23.90;99.90;;;;;;5069792;28;20750;-70
2021/07/22 06:41:21;;;;;;;17.88;13.07;;;24.00;99.90;;;;;;5069906;28;20315;-71
2021/07/22 06:43:48;;;;;;;17.27;13.27;;;24.20;99.90;;;;;;5070721;28;20281;-71
2021/07/22 06:46:15;;;;;;;14.23;12.80;;;24.20;99.90;;;;;;5069673;28;20276;-71
2021/07/22 06:48:44;;;;;;;13.35;12.02;;;24.30;99.90;;;;;;5067910;28;20206;-69
2021/07/22 06:51:12;;;;;;;15.10;13.52;;;24.50;99.90;;;;;;5069649;28;20209;-70
2021/07/22 06:53:39;;;;;;;13.38;11.35;;;24.50;99.90;;;;;;5070293;28;20727;-70
2021/07/22 06:56:06;;;;;;;19.33;12.50;;;24.60;99.90;;;;;;5061379;28;20202;-72
2021/07/22 06:58:33;;;;;;;13.75;12.10;;;24.70;99.90;;;;;;5059562;28;20209;-73
2021/07/22 07:01:00;;;;;;;14.30;12.93;;;24.90;99.90;;;;;;5065747;28;20768;-72
2021/07/22 07:03:27;;;;;;;14.55;12.27;;;25.00;99.90;;;;;;5068970;28;20209;-72
2021/07/22 07:05:55;;;;;;;13.98;10.63;;;25.20;99.90;;;;;;5070129;28;20259;-72
2021/07/22 07:08:22;;;;;;;15.57;10.90;;;25.20;99.90;;;;;;5071672;28;20254;-71
2021/07/22 07:10:49;;;;;;;12.80;11.50;;;25.30;99.90;;;;;;5082796;28;20672;-71
2021/07/22 07:13:16;;;;;;;16.65;12.85;;;25.10;99.90;;;;;;5083657;28;20201;-71
2021/07/22 07:15:43;;;;;;;13.20;11.70;;;25.30;99.90;;;;;;5077860;28;20262;-72
2021/07/22 07:18:10;;;;;;;14.88;12.32;;;25.30;99.90;;;;;;5070568;28;20649;-72
2021/07/22 07:20:37;;;;;;;17.85;13.40;;;25.30;99.90;;;;;;5074431;28;20879;-73
2021/07/22 07:23:05;;;;;;;13.82;12.30;;;25.40;99.90;;;;;;5077540;28;20206;-73
2021/07/22 07:25:33;;;;;;;14.13;12.55;;;25.60;99.90;;;;;;5069840;28;20643;-73
2021/07/22 07:28:00;;;;;;;15.23;12.15;;;25.80;99.90;;;;;;5078309;28;20581;-73
2021/07/22 07:30:27;;;;;;;13.18;11.88;;;25.80;99.90;;;;;;5079491;28;20297;-72
2021/07/22 07:32:55;;;;;;;15.30;13.05;;;25.90;99.90;;;;;;5065451;28;20202;-74
2021/07/22 07:35:25;;;;;;;17.52;13.05;;;25.90;99.90;;;;;;5073352;28;20216;-74
2021/07/22 07:37:52;;;;;;;14.10;12.48;;;26.00;99.90;;;;;;5074856;28;20328;-70
2021/07/22 07:40:21;;;;;;;14.50;12.73;;;26.10;99.90;;;;;;5074031;28;20229;-72
2021/07/22 07:42:48;;;;;;;16.17;11.98;;;26.30;99.90;;;;;;5076025;28;20230;-73
2021/07/22 07:45:15;;;;;;;17.00;12.95;;;26.30;99.90;;;;;;5072607;28;20207;-73
2021/07/22 07:47:42;;;;;;;14.35;12.20;;;26.50;99.90;;;;;;5071502;28;20202;-73
2021/07/22 07:50:10;;;;;;;15.05;12.90;;;26.60;99.90;;;;;;5062614;28;20723;-73
2021/07/22 07:52:39;;;;;;;14.05;12.57;;;26.80;99.90;;;;;;5073321;28;20206;-73
2021/07/22 07:55:19;;;;;;;14.25;12.57;;;26.90;99.90;;;;;;5061944;28;20202;-72
2021/07/22 07:57:47;;;;;;;15.35;11.85;;;26.90;99.90;;;;;;5072559;28;20648;-73
2021/07/22 08:00:15;;;;;;;12.50;11.38;;;26.90;99.90;;;;;;5072406;28;20252;-73
2021/07/22 08:02:42;;;;;;;16.38;13.27;;;27.00;99.90;;;;;;5072748;28;20287;-73
2021/07/22 08:05:10;;;;;;;13.85;12.55;;;27.30;99.90;;;;;;5072441;28;20198;-73
2021/07/22 08:07:37;;;;;;;14.40;12.57;;;27.70;99.90;;;;;;5073170;28;20665;-72
2021/07/22 08:10:04;;;;;;;13.00;11.52;;;29.20;99.90;;;;;;5072012;28;20198;-73
2021/07/22 08:12:31;;;;;;;13.80;12.27;;;30.10;99.90;;;;;;5072730;28;20256;-73
2021/07/22 08:14:59;;;;;;;13.10;11.90;;;29.10;99.90;;;;;;5065211;28;20235;-73
2021/07/22 08:17:27;;;;;;;15.80;13.38;;;28.80;99.90;;;;;;5074011;28;20295;-73
2021/07/22 08:19:59;;;;;;;14.68;13.18;;;28.60;99.90;;;;;;5073709;28;20260;-73
2021/07/22 08:22:26;;;;;;;14.05;12.55;;;28.40;99.90;;;;;;5071848;28;20226;-74
2021/07/22 08:24:53;;;;;;;13.82;11.77;;;28.50;99.90;;;;;;5063855;28;20293;-74
2021/07/22 08:27:26;;;;;;;12.45;10.70;;;28.60;99.90;;;;;;5066093;28;20198;-73
2021/07/22 08:29:53;;;;;;;13.73;12.40;;;29.00;99.90;;;;;;5066464;28;20284;-72
2021/07/22 08:32:22;;;;;;;16.08;11.98;;;29.10;99.90;;;;;;5079742;28;20197;-73
2021/07/22 08:34:49;;;;;;;14.18;12.75;;;29.10;99.90;;;;;;5072249;28;20661;-73
2021/07/22 08:37:16;;;;;;;13.68;12.13;;;29.50;99.90;;;;;;5073705;28;20213;-73
2021/07/22 08:39:45;;;;;;;13.57;11.07;;;29.80;99.90;;;;;;5073663;28;20252;-70
2021/07/22 08:42:13;;;;;;;14.98;12.05;;;29.80;99.90;;;;;;5072602;28;20221;-73
2021/07/22 08:44:42;;;;;;;12.38;11.15;;;30.40;99.90;;;;;;5078352;28;20252;-72
2021/07/22 08:47:11;;;;;;;13.30;11.93;;;30.60;99.90;;;;;;5088201;28;20201;-72
2021/07/22 08:49:40;;;;;;;13.07;11.77;;;30.30;99.90;;;;;;5083985;28;20198;-72
2021/07/22 08:52:08;;;;;;;11.55;10.38;;;30.30;99.90;;;;;;5080526;28;20210;-72
2021/07/22 08:54:36;;;;;;;12.02;10.82;;;30.60;99.90;;;;;;5086219;28;20583;-73
2021/07/22 08:57:06;;;;;;;17.88;11.43;;;30.70;99.90;;;;;;5082627;28;20205;-75
2021/07/22 08:59:34;;;;;;;16.33;12.25;;;30.70;99.90;;;;;;5086535;28;20205;-74
2021/07/22 09:02:01;;;;;;;13.98;11.90;;;31.10;99.90;;;;;;5078009;28;20242;-73
2021/07/22 09:04:29;;;;;;;11.75;10.57;;;30.60;99.90;;;;;;5066868;28;20647;-75
2021/07/22 09:06:58;;;;;;;13.43;11.65;;;30.50;99.90;;;;;;5078364;28;20233;-78
2021/07/22 09:09:25;;;;;;;12.85;11.52;;;30.80;99.90;;;;;;5080280;28;20206;-75
2021/07/22 09:11:56;;;;;;;12.27;10.38;;;31.30;99.90;;;;;;5075562;28;20624;-77
2021/07/22 09:14:24;;;;;;;13.07;11.70;;;31.00;99.90;;;;;;5079545;28;20809;-76
2021/07/22 09:16:51;;;;;;;10.80;9.82;;;31.10;99.90;;;;;;5061524;28;20560;-76
2021/07/22 09:19:35;;;;;;;15.02;11.18;;;31.10;99.90;;;;;;5069603;28;20555;-81
2021/07/22 09:22:05;;;;;;;12.15;10.95;;;31.30;99.90;;;;;;5071000;28;20400;-79
2021/07/22 09:24:48;;;;;;;12.90;11.70;;;31.50;99.90;;;;;;5063254;28;20228;-80
2021/07/22 09:27:34;;;;;;;13.07;11.70;;;31.60;99.90;;;;;;5072105;28;20679;-81
2021/07/22 09:30:01;;;;;;;15.57;11.18;;;31.90;99.90;;;;;;5076973;28;20212;-79
2021/07/22 09:32:32;;;;;;;13.55;12.25;;;31.50;99.90;;;;;;5071333;28;20297;-78
2021/07/22 09:35:10;;;;;;;11.65;10.48;;;31.70;99.90;;;;;;5067090;28;20665;-78
2021/07/22 09:37:40;;;;;;;13.93;11.85;;;31.50;99.90;;;;;;5072156;28;20265;-77
2021/07/22 09:40:09;;;;;;;11.57;10.50;;;31.90;99.90;;;;;;5085112;28;20721;-74
2021/07/22 09:42:44;;;;;;;15.25;10.57;;;32.70;99.90;;;;;;5079864;28;20236;-80
2021/07/22 09:45:13;;;;;;;12.30;11.07;;;34.00;99.90;;;;;;5068404;28;20258;-76
2021/07/22 09:47:40;;;;;;;12.60;10.15;;;32.90;99.90;;;;;;5069597;28;20642;-76
2021/07/22 09:50:12;;;;;;;15.80;11.57;;;33.90;99.90;;;;;;5070903;28;20197;-76
2021/07/22 09:52:41;;;;;;;11.40;10.30;;;35.00;99.90;;;;;;5080049;28;20205;-74
2021/07/22 09:55:28;;;;;;;11.52;10.52;;;34.30;99.90;;;;;;5070011;28;20205;-75
2021/07/22 09:57:56;;;;;;;12.88;11.70;;;34.80;99.90;;;;;;5065770;28;20204;-74
2021/07/22 10:00:24;;;;;;;10.55;9.52;;;34.70;99.90;;;;;;5068767;28;20271;-75
2021/07/22 10:02:52;;;;;;;12.75;11.70;;;34.40;99.90;;;;;;5069052;28;20642;-75
2021/07/22 10:05:23;;;;;;;11.48;10.35;;;34.90;99.90;;;;;;5069212;28;20288;-73
2021/07/22 10:07:53;;;;;;;11.52;10.38;;;37.20;99.90;;;;;;5070767;28;20212;-75
2021/07/22 10:10:21;;;;;;;11.38;10.10;;;37.40;99.90;;;;;;5069199;28;20197;-75
2021/07/22 10:12:54;;;;;;;11.70;10.70;;;36.30;99.90;;;;;;5070382;28;20255;-75
2021/07/22 10:15:22;;;;;;;11.05;10.13;;;38.20;99.90;;;;;;5069822;28;20262;-75
2021/07/22 10:17:51;;;;;;;11.75;10.48;;;40.00;99.90;;;;;;5066859;28;20208;-74
2021/07/22 10:20:19;;;;;;;11.45;10.23;;;39.40;99.90;;;;;;5070033;28;20209;-73
2021/07/22 10:22:47;;;;;;;10.15;9.40;;;38.10;98.90;;;;;;5070198;28;20225;-74
2021/07/22 10:25:17;;;;;;;10.80;9.45;;;40.60;99.80;;;;;;5069577;28;20214;-74
2021/07/22 10:27:44;;;;;;;11.15;10.07;;;40.80;98.70;;;;;;5070223;28;20715;-74
2021/07/22 10:30:13;;;;;;;11.52;10.43;;;39.60;97.10;;;;;;5069873;28;20217;-74
2021/07/22 10:32:44;;;;;;;10.27;9.38;;;40.40;97.20;;;;;;5070397;28;20202;-75
2021/07/22 10:35:12;;;;;;;11.48;10.30;;;41.30;98.00;;;;;;5069921;28;20574;-75
2021/07/22 10:37:39;;;;;;;11.55;10.50;;;39.80;97.20;;;;;;5070146;28;20201;-74
2021/07/22 10:40:08;;;;;;;10.75;9.65;;;40.70;97.20;;;;;;5070557;28;20209;-75
2021/07/22 10:42:47;;;;;;;10.43;9.57;;;37.50;98.60;;;;;;5070584;28;20233;-74
2021/07/22 10:45:25;;;;;;;10.55;9.55;;;34.90;99.90;;;;;;5070037;28;20209;-74
2021/07/22 10:48:06;;;;;;;11.05;9.52;;;34.10;99.90;;;;;;5070270;28;20262;-74
2021/07/22 10:51:01;;;;;;;13.55;9.60;;;33.70;99.90;;;;;;5070001;28;20313;-74
2021/07/22 10:53:50;;;;;;;11.02;10.05;;;33.80;99.90;;;;;;5072195;28;20262;-74
2021/07/22 10:56:39;;;;;;;12.13;10.98;;;33.50;99.90;;;;;;5072004;28;20213;-75
2021/07/22 10:59:08;;;;;;;11.57;10.27;;;33.40;99.90;;;;;;5074895;28;20205;-75
2021/07/22 11:01:53;;;;;;;11.98;10.70;;;33.50;99.90;;;;;;5074055;28;20661;-75
2021/07/22 11:04:40;;;;;;;10.73;9.73;;;33.20;99.90;;;;;;5073923;28;20219;-74
2021/07/22 11:07:08;;;;;;;11.88;10.77;;;32.90;99.90;;;;;;5073998;28;20205;-74
2021/07/22 11:09:44;;;;;;;12.85;11.02;;;33.50;99.90;;;;;;5074282;28;20259;-74
2021/07/22 11:12:11;;;;;;;12.07;10.98;;;33.70;99.90;;;;;;5073832;28;20209;-74
2021/07/22 11:14:40;;;;;;;11.93;10.85;;;33.70;99.90;;;;;;5074192;28;20259;-74
2021/07/22 11:17:07;;;;;;;11.90;10.63;;;33.70;99.90;;;;;;5073845;28;20607;-73
2021/07/22 11:19:34;;;;;;;15.77;11.18;;;33.90;99.90;;;;;;5073863;28;20206;-74
2021/07/22 11:22:01;;;;;;;12.15;10.88;;;33.90;99.90;;;;;;5073549;28;20284;-74
2021/07/22 11:24:28;;;;;;;10.82;9.80;;;33.80;99.90;;;;;;5073481;28;20209;-74
2021/07/22 11:26:56;;;;;;;11.40;10.27;;;33.10;99.90;;;;;;5073783;28;20202;-74
2021/07/22 11:29:24;;;;;;;12.13;10.30;;;33.60;99.90;;;;;;5073361;28;20201;-74
2021/07/22 11:31:55;;;;;;;10.60;9.50;;;34.00;99.90;;;;;;5073418;28;20209;-75
2021/07/22 11:34:29;;;;;;;11.20;10.18;;;34.10;99.90;;;;;;5073011;28;20657;-75
2021/07/22 11:36:56;;;;;;;11.73;10.45;;;34.10;99.90;;;;;;5073437;28;20209;-74
2021/07/22 11:39:35;;;;;;;12.68;10.35;;;34.50;99.90;;;;;;5072953;28;20255;-74
2021/07/22 11:42:06;;;;;;;11.10;10.05;;;34.40;99.90;;;;;;5073263;28;20715;-74
2021/07/22 11:44:33;;;;;;;11.10;10.15;;;33.90;99.90;;;;;;5072998;28;20202;-73
2021/07/22 11:47:02;;;;;;;12.38;10.20;;;34.10;99.90;;;;;;5073714;28;20283;-74
2021/07/22 11:49:36;;;;;;;10.82;9.75;;;34.10;99.90;;;;;;5072851;28;20255;-74
2021/07/22 11:52:03;;;;;;;11.13;10.02;;;34.50;99.90;;;;;;5073041;28;20262;-75
2021/07/22 11:54:30;;;;;;;11.63;10.52;;;34.70;99.90;;;;;;5072834;28;20258;-74
2021/07/22 11:56:58;;;;;;;12.13;10.05;;;34.70;99.90;;;;;;5073209;28;20210;-74
2021/07/22 11:59:29;;;;;;;10.93;9.25;;;34.30;99.90;;;;;;5072987;28;20210;-74
2021/07/22 12:01:57;;;;;;;10.75;9.35;;;34.40;99.90;;;;;;5073431;28;20288;-74
2021/07/22 12:04:28;;;;;;;11.85;10.75;;;34.20;99.90;;;;;;5071914;28;20283;-74
2021/07/22 12:06:56;;;;;;;11.27;10.15;;;34.20;99.90;;;;;;5072536;28;20669;-74
2021/07/22 12:09:23;;;;;;;11.07;10.02;;;34.10;99.90;;;;;;5072691;28;20251;-75
2021/07/22 12:11:52;;;;;;;9.50;8.63;;;34.50;99.90;;;;;;5072886;28;20205;-75
2021/07/22 12:14:27;;;;;;;11.35;9.40;;;34.60;99.90;;;;;;5072771;28;20251;-73
2021/07/22 12:16:55;;;;;;;9.65;8.52;;;34.70;99.90;;;;;;5069696;28;20281;-75
2021/07/22 12:19:28;;;;;;;11.15;9.32;;;34.40;99.90;;;;;;5071114;28;20286;-75
2021/07/22 12:22:20;;;;;;;10.35;9.45;;;34.50;99.90;;;;;;5072337;28;20673;-75
2021/07/22 12:24:48;;;;;;;10.23;9.25;;;34.90;99.90;;;;;;5072626;28;20229;-74
2021/07/22 12:27:43;;;;;;;10.57;9.50;;;35.10;99.90;;;;;;5071994;28;20205;-75
2021/07/22 12:30:17;;;;;;;9.80;8.98;;;34.80;99.90;;;;;;5059349;28;20296;-74
2021/07/22 12:32:50;;;;;;;10.52;9.63;;;34.90;99.90;;;;;;5072541;28;20205;-74
2021/07/22 12:35:30;;;;;;;10.45;9.00;;;34.90;99.90;;;;;;5071915;28;20209;-74